createdAt,value
2019-05-26T00:01:47.556Z,75.33
2019-05-26T00:04:16.544Z,76.31
2019-05-26T00:06:45.052Z,77.17
2019-05-26T00:09:13.740Z,77.83
2019-05-26T00:11:41.927Z,78.47
2019-05-26T00:14:10.212Z,78.92
2019-05-26T00:16:38.911Z,79.10
2019-05-26T00:19:07.052Z,79.24
2019-05-26T00:21:35.672Z,79.01
2019-05-26T00:24:03.845Z,79.03
2019-05-26T00:26:32.017Z,78.22
2019-05-26T00:29:00.451Z,78.08
2019-05-26T00:31:29.036Z,78.31
2019-05-26T00:33:57.242Z,78.15
2019-05-26T00:36:25.699Z,78.56
2019-05-26T00:38:54.134Z,78.55
2019-05-26T00:41:22.977Z,78.50
2019-05-26T00:43:51.121Z,78.73
2019-05-26T00:46:19.876Z,78.75
2019-05-26T00:48:48.153Z,78.71
2019-05-26T00:51:16.743Z,78.36
2019-05-26T00:53:44.983Z,77.79
2019-05-26T00:56:14.033Z,77.14
2019-05-26T00:58:42.305Z,77.05
2019-05-26T01:01:11.248Z,77.49
2019-05-26T01:03:40.344Z,77.20
2019-05-26T01:06:08.559Z,76.69
2019-05-26T01:08:36.693Z,76.56
2019-05-26T01:11:05.124Z,76.96
2019-05-26T01:13:34.261Z,77.28
2019-05-26T01:16:03.111Z,76.90
2019-05-26T01:18:31.863Z,76.79
2019-05-26T01:21:00.382Z,76.79
2019-05-26T01:23:28.771Z,75.82
2019-05-26T01:25:57.019Z,75.38
2019-05-26T01:28:25.730Z,74.71
2019-05-26T01:30:54.818Z,75.38
2019-05-26T01:33:23.468Z,75.01
2019-05-26T01:35:51.748Z,74.30
2019-05-26T01:38:24.364Z,75.66
2019-05-26T01:40:51.657Z,75.85
2019-05-26T01:43:20.259Z,76.86
2019-05-26T01:45:48.797Z,77.55
2019-05-26T01:48:17.226Z,77.91
2019-05-26T01:50:45.465Z,77.73
2019-05-26T01:53:13.605Z,77.00
2019-05-26T01:55:42.875Z,78.37
2019-05-26T01:58:11.667Z,78.20
2019-05-26T02:00:40.581Z,77.89
2019-05-26T02:03:09.145Z,77.29
2019-05-26T02:05:37.908Z,77.13
2019-05-26T02:08:06.663Z,76.83
2019-05-26T02:10:34.863Z,76.72
2019-05-26T02:13:03.148Z,77.44
2019-05-26T02:15:32.328Z,77.64
2019-05-26T02:18:00.804Z,76.61
2019-05-26T02:20:29.678Z,75.87
2019-05-26T02:22:58.235Z,77.08
2019-05-26T02:25:27.019Z,76.81
2019-05-26T02:27:55.524Z,76.47
2019-05-26T02:30:23.689Z,76.47
2019-05-26T02:32:52.376Z,76.96
2019-05-26T02:35:21.352Z,76.15
2019-05-26T02:37:49.592Z,76.02
2019-05-26T02:40:19.220Z,75.84
2019-05-26T02:42:47.367Z,75.14
2019-05-26T02:45:17.649Z,76.08
2019-05-26T02:47:46.600Z,75.79
2019-05-26T02:50:15.849Z,75.01
2019-05-26T02:52:43.993Z,74.80
2019-05-26T02:55:12.863Z,75.45
2019-05-26T02:57:41.621Z,74.83
2019-05-26T03:00:12.369Z,74.47
2019-05-26T03:02:41.238Z,74.30
2019-05-26T03:05:10.479Z,73.97
2019-05-26T03:07:42.513Z,74.40
2019-05-26T03:10:12.640Z,73.85
2019-05-26T03:12:42.306Z,73.42
2019-05-26T03:15:12.387Z,73.86
2019-05-26T03:17:41.937Z,73.70
2019-05-26T03:20:13.123Z,73.56
2019-05-26T03:22:41.794Z,73.59
2019-05-26T03:25:12.005Z,72.90
2019-05-26T03:27:40.400Z,72.67
2019-05-26T03:30:09.749Z,72.71
2019-05-26T03:32:37.987Z,72.65
2019-05-26T03:35:07.836Z,72.20
2019-05-26T03:37:36.477Z,71.72
2019-05-26T03:40:08.613Z,71.63
2019-05-26T03:42:38.674Z,71.23
2019-05-26T03:45:08.354Z,71.13
2019-05-26T03:47:36.508Z,70.98
2019-05-26T03:50:05.481Z,70.58
2019-05-26T03:52:33.720Z,70.36
2019-05-26T03:55:02.258Z,70.24
2019-05-26T03:57:30.477Z,70.13
2019-05-26T03:59:58.615Z,69.99
2019-05-26T04:02:27.148Z,69.61
2019-05-26T04:04:56.521Z,69.54
2019-05-26T04:07:24.802Z,68.94
2019-05-26T04:10:04.652Z,69.05
2019-05-26T04:12:23.557Z,68.24
2019-05-26T04:14:51.853Z,68.12
2019-05-26T04:17:20.295Z,67.63
2019-05-26T04:19:49.059Z,67.52
2019-05-26T04:22:17.337Z,67.27
2019-05-26T04:24:45.808Z,66.85
2019-05-26T04:27:14.458Z,66.72
2019-05-26T04:29:42.787Z,66.39
2019-05-26T04:32:11.056Z,66.67
2019-05-26T04:34:39.888Z,66.15
2019-05-26T04:37:08.252Z,65.99
2019-05-26T04:39:36.580Z,65.65
2019-05-26T04:42:05.158Z,65.67
2019-05-26T04:44:33.425Z,65.37
2019-05-26T04:47:01.608Z,64.84
2019-05-26T04:49:30.847Z,65.19
2019-05-26T04:51:59.123Z,65.14
2019-05-26T04:54:28.074Z,64.69
2019-05-26T04:56:56.255Z,64.74
2019-05-26T04:59:25.039Z,64.51
2019-05-26T05:01:53.342Z,64.19
2019-05-26T05:04:21.876Z,63.99
2019-05-26T05:06:50.017Z,63.42
2019-05-26T05:09:18.291Z,63.55
2019-05-26T05:11:46.750Z,63.05
2019-05-26T05:14:15.130Z,62.14
2019-05-26T05:16:43.356Z,61.91
2019-05-26T05:19:11.806Z,62.01
2019-05-26T05:21:40.118Z,61.95
2019-05-26T05:24:08.496Z,61.53
2019-05-26T05:26:36.670Z,60.81
2019-05-26T05:29:04.808Z,60.64
2019-05-26T05:31:32.986Z,60.16
2019-05-26T05:34:01.514Z,60.36
2019-05-26T05:36:30.187Z,60.32
2019-05-26T05:38:58.513Z,59.98
2019-05-26T05:41:27.168Z,59.48
2019-05-26T05:43:55.825Z,58.95
2019-05-26T05:46:24.365Z,57.38
2019-05-26T05:48:52.873Z,57.11
2019-05-26T05:51:21.012Z,56.48
2019-05-26T05:53:49.164Z,54.53
2019-05-26T05:56:17.652Z,54.38
2019-05-26T05:58:46.168Z,53.61
2019-05-26T06:01:14.433Z,54.24
2019-05-26T06:03:42.718Z,55.63
2019-05-26T06:06:11.516Z,55.22
2019-05-26T06:08:40.296Z,55.73
2019-05-26T06:11:16.469Z,55.86
2019-05-26T06:13:38.691Z,56.27
2019-05-26T06:16:07.028Z,55.97
2019-05-26T06:18:35.581Z,55.89
2019-05-26T06:21:04.670Z,54.66
2019-05-26T06:23:36.631Z,53.50
2019-05-26T06:26:03.980Z,53.69
2019-05-26T06:28:32.616Z,54.26
2019-05-26T06:31:00.815Z,53.97
2019-05-26T06:33:29.189Z,55.51
2019-05-26T06:35:57.410Z,54.13
2019-05-26T06:38:27.402Z,53.55
2019-05-26T06:40:55.754Z,53.60
2019-05-26T06:43:24.241Z,54.41
2019-05-26T06:45:52.958Z,53.73
2019-05-26T06:48:21.127Z,53.11
2019-05-26T06:50:50.717Z,52.86
2019-05-26T06:53:18.881Z,52.86
2019-05-26T06:55:47.014Z,52.99
2019-05-26T06:58:15.542Z,52.93
2019-05-26T07:00:43.687Z,52.88
2019-05-26T07:03:11.999Z,52.16
2019-05-26T07:05:40.730Z,52.73
2019-05-26T07:08:09.020Z,54.25
2019-05-26T07:10:37.593Z,53.05
2019-05-26T07:13:05.772Z,53.04
2019-05-26T07:15:34.331Z,53.29
2019-05-26T07:18:02.917Z,52.84
2019-05-26T07:20:31.214Z,52.72
2019-05-26T07:22:59.837Z,51.70
2019-05-26T07:25:28.118Z,51.73
2019-05-26T07:27:56.965Z,51.11
2019-05-26T07:30:25.242Z,51.26
2019-05-26T07:32:53.805Z,51.07
2019-05-26T07:35:22.177Z,51.22
2019-05-26T07:37:50.732Z,51.07
2019-05-26T07:40:20.622Z,51.52
2019-05-26T07:42:49.068Z,51.30
2019-05-26T07:45:17.847Z,51.79
2019-05-26T07:47:46.099Z,51.14
2019-05-26T07:50:14.771Z,50.88
2019-05-26T07:52:43.013Z,50.66
2019-05-26T07:55:11.698Z,49.73
2019-05-26T07:57:39.835Z,49.69
2019-05-26T08:00:08.739Z,49.13
2019-05-26T08:02:36.907Z,49.40
2019-05-26T08:05:05.443Z,49.09
2019-05-26T08:07:33.849Z,49.17
2019-05-26T08:10:03.099Z,47.85
2019-05-26T08:12:31.484Z,47.56
2019-05-26T08:14:59.740Z,46.60
2019-05-26T08:17:28.256Z,47.02
2019-05-26T08:19:56.504Z,46.11
2019-05-26T08:22:24.955Z,45.40
2019-05-26T08:24:53.498Z,45.73
2019-05-26T08:27:21.710Z,45.51
2019-05-26T08:29:50.209Z,45.20
2019-05-26T08:32:18.510Z,46.01
2019-05-26T08:34:46.983Z,45.42
2019-05-26T08:37:15.241Z,44.77
2019-05-26T08:39:48.129Z,45.08
2019-05-26T08:42:26.215Z,45.66
2019-05-26T08:44:44.812Z,45.66
2019-05-26T08:47:13.629Z,45.17
2019-05-26T08:49:41.776Z,45.20
2019-05-26T08:52:10.235Z,44.71
2019-05-26T08:54:38.891Z,44.42
2019-05-26T08:57:07.100Z,45.31
2019-05-26T08:59:35.378Z,45.13
2019-05-26T09:02:04.240Z,45.15
2019-05-26T09:04:32.418Z,44.58
2019-05-26T09:07:01.045Z,46.05
2019-05-26T09:09:30.050Z,45.93
2019-05-26T09:11:58.288Z,46.54
2019-05-26T09:14:27.024Z,47.16
2019-05-26T09:16:55.397Z,47.83
2019-05-26T09:19:23.569Z,49.12
2019-05-26T09:21:51.716Z,50.04
2019-05-26T09:24:19.894Z,49.61
2019-05-26T09:26:48.441Z,48.51
2019-05-26T09:29:16.888Z,48.79
2019-05-26T09:31:45.374Z,49.74
2019-05-26T09:34:13.581Z,50.12
2019-05-26T09:36:41.772Z,49.94
2019-05-26T09:39:10.274Z,49.74
2019-05-26T09:41:38.768Z,49.35
2019-05-26T09:44:07.053Z,48.67
2019-05-26T09:46:35.272Z,48.32
2019-05-26T09:49:04.194Z,47.65
2019-05-26T09:51:32.355Z,48.15
2019-05-26T09:54:02.058Z,47.42
2019-05-26T09:56:31.019Z,47.89
2019-05-26T09:58:59.805Z,47.90
2019-05-26T10:01:28.070Z,47.36
2019-05-26T10:03:56.394Z,47.54
2019-05-26T10:06:24.532Z,46.42
2019-05-26T10:08:54.736Z,45.62
2019-05-26T10:11:23.283Z,45.54
2019-05-26T10:13:51.774Z,45.24
2019-05-26T10:16:20.207Z,45.43
2019-05-26T10:18:49.490Z,45.02
2019-05-26T10:21:17.666Z,44.36
2019-05-26T10:23:45.916Z,43.27
2019-05-26T10:26:14.458Z,43.63
2019-05-26T10:28:42.638Z,43.89
2019-05-26T10:31:11.242Z,44.00
2019-05-26T10:33:40.026Z,44.14
2019-05-26T10:36:09.909Z,42.80
2019-05-26T10:38:38.581Z,42.89
2019-05-26T10:41:07.073Z,42.29
2019-05-26T10:43:46.814Z,42.52
2019-05-26T10:46:05.843Z,41.63
2019-05-26T10:48:34.084Z,41.51
2019-05-26T10:51:02.271Z,42.09
2019-05-26T10:53:30.507Z,42.39
2019-05-26T10:55:59.940Z,42.61
2019-05-26T10:58:28.176Z,42.21
2019-05-26T11:00:56.663Z,42.49
2019-05-26T11:03:24.805Z,41.92
2019-05-26T11:05:54.017Z,41.62
2019-05-26T11:08:22.157Z,41.41
2019-05-26T11:10:52.575Z,42.10
2019-05-26T11:13:20.773Z,42.40
2019-05-26T11:15:50.140Z,42.54
2019-05-26T11:18:18.276Z,42.05
2019-05-26T11:20:46.667Z,41.14
2019-05-26T11:23:14.880Z,41.31
2019-05-26T11:25:43.389Z,41.78
2019-05-26T11:28:12.446Z,40.36
2019-05-26T11:30:40.598Z,40.94
2019-05-26T11:33:09.095Z,40.57
2019-05-26T11:35:37.340Z,40.39
2019-05-26T11:38:05.876Z,39.59
2019-05-26T11:40:34.541Z,39.14
2019-05-26T11:43:15.765Z,40.41
2019-05-26T11:45:32.876Z,39.02
2019-05-26T11:48:01.518Z,39.15
2019-05-26T11:50:29.814Z,40.38
2019-05-26T11:52:58.031Z,39.91
2019-05-26T11:55:27.904Z,39.56
2019-05-26T11:57:56.269Z,39.83
2019-05-26T12:00:26.147Z,40.38
2019-05-26T12:02:54.422Z,40.41
2019-05-26T12:05:22.949Z,39.88
2019-05-26T12:07:51.096Z,40.75
2019-05-26T12:10:19.382Z,41.02
2019-05-26T12:12:47.903Z,40.82
2019-05-26T12:15:17.498Z,39.96
2019-05-26T12:17:46.432Z,39.57
2019-05-26T12:20:15.342Z,39.83
2019-05-26T12:22:43.777Z,39.28
2019-05-26T12:25:12.436Z,39.61
2019-05-26T12:27:40.694Z,39.51
2019-05-26T12:30:09.977Z,39.74
2019-05-26T12:32:38.090Z,39.87
2019-05-26T12:35:07.011Z,38.82
2019-05-26T12:37:35.526Z,38.26
2019-05-26T12:40:04.709Z,38.69
2019-05-26T12:42:33.030Z,38.87
2019-05-26T12:45:02.142Z,39.03
2019-05-26T12:47:31.370Z,38.37
2019-05-26T12:49:59.832Z,38.27
2019-05-26T12:52:27.999Z,38.62
2019-05-26T12:54:56.135Z,38.24
2019-05-26T12:57:24.358Z,37.95
2019-05-26T12:59:52.522Z,38.24
2019-05-26T13:02:20.685Z,38.34
2019-05-26T13:04:49.282Z,38.75
2019-05-26T13:07:17.407Z,38.48
2019-05-26T13:09:46.385Z,38.16
2019-05-26T13:12:14.893Z,38.17
2019-05-26T13:14:43.280Z,38.62
2019-05-26T13:17:13.831Z,38.80
2019-05-26T13:19:42.002Z,38.15
2019-05-26T13:22:11.336Z,39.23
2019-05-26T13:24:40.028Z,38.67
2019-05-26T13:27:08.577Z,38.79
2019-05-26T13:29:36.867Z,39.78
2019-05-26T13:32:05.076Z,39.61
2019-05-26T13:34:35.654Z,40.23
2019-05-26T13:37:04.063Z,40.45
2019-05-26T13:39:32.731Z,40.52
2019-05-26T13:42:00.903Z,40.81
2019-05-26T13:44:29.745Z,41.39
2019-05-26T13:46:57.936Z,41.42
2019-05-26T13:49:26.364Z,41.86
2019-05-26T13:51:54.915Z,42.53
2019-05-26T13:54:23.760Z,42.75
2019-05-26T13:56:51.973Z,43.10
2019-05-26T13:59:20.267Z,43.27
2019-05-26T14:01:48.407Z,44.14
2019-05-26T14:04:16.596Z,45.28
2019-05-26T14:06:44.828Z,46.16
2019-05-26T14:09:13.096Z,47.98
2019-05-26T14:11:42.728Z,47.75
2019-05-26T14:14:11.063Z,46.83
2019-05-26T14:16:42.301Z,45.91
2019-05-26T14:19:11.784Z,44.71
2019-05-26T14:21:40.019Z,43.96
2019-05-26T14:24:08.148Z,43.24
2019-05-26T14:26:37.656Z,42.65
2019-05-26T14:29:05.843Z,41.90
2019-05-26T14:31:34.008Z,42.06
2019-05-26T14:34:02.408Z,41.67
2019-05-26T14:36:30.584Z,41.67
2019-05-26T14:38:59.029Z,42.11
2019-05-26T14:41:27.209Z,43.27
2019-05-26T14:43:56.169Z,43.70
2019-05-26T14:46:24.853Z,43.28
2019-05-26T14:48:53.532Z,43.82
2019-05-26T14:51:21.788Z,44.01
2019-05-26T14:53:50.101Z,44.63
2019-05-26T14:56:18.993Z,44.63
2019-05-26T14:58:47.172Z,44.38
2019-05-26T15:01:15.393Z,43.92
2019-05-26T15:03:43.725Z,43.38
2019-05-26T15:06:11.851Z,43.24
2019-05-26T15:08:40.061Z,43.56
2019-05-26T15:11:08.157Z,43.43
2019-05-26T15:13:36.344Z,43.33
2019-05-26T15:16:09.826Z,43.96
2019-05-26T15:18:35.569Z,43.53
2019-05-26T15:21:03.949Z,43.55
2019-05-26T15:23:32.082Z,44.23
2019-05-26T15:26:00.344Z,44.15
2019-05-26T15:28:29.064Z,44.39
2019-05-26T15:30:57.212Z,44.26
2019-05-26T15:33:25.378Z,44.37
2019-05-26T15:35:53.822Z,44.65
2019-05-26T15:38:22.203Z,44.62
2019-05-26T15:40:50.558Z,44.83
2019-05-26T15:43:19.409Z,44.84
2019-05-26T15:45:47.587Z,44.95
2019-05-26T15:48:15.721Z,45.05
2019-05-26T15:50:46.133Z,45.07
2019-05-26T15:53:14.418Z,45.30
2019-05-26T15:55:43.404Z,45.30
2019-05-26T15:58:12.071Z,45.22
2019-05-26T16:00:40.509Z,45.42
2019-05-26T16:03:08.700Z,45.33
2019-05-26T16:05:36.926Z,45.53
2019-05-26T16:08:06.135Z,45.21
2019-05-26T16:10:34.377Z,45.04
2019-05-26T16:13:03.374Z,45.36
2019-05-26T16:15:31.593Z,45.09
2019-05-26T16:17:59.896Z,45.12
2019-05-26T16:20:28.494Z,45.60
2019-05-26T16:22:56.967Z,45.38
2019-05-26T16:25:25.419Z,45.68
2019-05-26T16:27:53.558Z,46.07
2019-05-26T16:30:21.880Z,46.50
2019-05-26T16:32:50.367Z,47.21
2019-05-26T16:35:18.527Z,49.48
2019-05-26T16:37:47.280Z,50.40
2019-05-26T16:40:15.832Z,50.45
2019-05-26T16:42:44.015Z,51.25
2019-05-26T16:45:13.681Z,51.73
2019-05-26T16:47:41.815Z,51.65
2019-05-26T16:50:10.954Z,52.29
2019-05-26T16:52:39.179Z,53.47
2019-05-26T16:55:08.463Z,54.38
2019-05-26T16:57:36.984Z,54.93
2019-05-26T17:00:06.394Z,55.33
2019-05-26T17:02:34.554Z,56.32
2019-05-26T17:05:04.446Z,57.53
2019-05-26T17:07:32.724Z,58.43
2019-05-26T17:10:01.230Z,59.86
2019-05-26T17:12:30.137Z,61.60
2019-05-26T17:14:58.289Z,63.74
2019-05-26T17:17:26.952Z,66.70
2019-05-26T17:19:56.929Z,68.35
2019-05-26T17:22:25.448Z,70.23
2019-05-26T17:24:54.320Z,71.34
2019-05-26T17:27:22.570Z,72.60
2019-05-26T17:29:51.550Z,72.93
2019-05-26T17:32:20.401Z,73.53
2019-05-26T17:34:48.946Z,75.68
2019-05-26T17:37:17.670Z,76.12
2019-05-26T17:39:45.940Z,76.01
2019-05-26T17:42:14.088Z,76.06
2019-05-26T17:44:42.548Z,77.00
2019-05-26T17:47:11.112Z,77.70
2019-05-26T17:49:39.260Z,78.12
2019-05-26T17:52:07.695Z,79.07
2019-05-26T17:54:36.096Z,79.48
2019-05-26T17:57:04.285Z,79.59
2019-05-26T17:59:32.415Z,80.31
2019-05-26T18:02:00.955Z,80.75
2019-05-26T18:04:29.181Z,81.35
2019-05-26T18:06:57.326Z,81.88
2019-05-26T18:09:26.335Z,81.86
2019-05-26T18:11:54.549Z,82.17
2019-05-26T18:14:22.847Z,82.13
2019-05-26T18:16:51.560Z,82.24
2019-05-26T18:19:20.404Z,81.96
2019-05-26T18:21:49.066Z,81.49
2019-05-26T18:24:17.330Z,81.11
2019-05-26T18:26:45.490Z,80.06
2019-05-26T18:29:13.911Z,80.19
2019-05-26T18:31:42.331Z,79.66
2019-05-26T18:34:10.578Z,79.72
2019-05-26T18:36:38.972Z,79.63
2019-05-26T18:39:08.226Z,79.18
2019-05-26T18:41:36.443Z,78.75
2019-05-26T18:44:04.640Z,78.89
2019-05-26T18:46:32.799Z,78.95
2019-05-26T18:49:01.028Z,78.58
2019-05-26T18:51:29.434Z,78.73
2019-05-26T18:53:58.021Z,78.85
2019-05-26T18:56:26.437Z,78.46
2019-05-26T18:58:55.005Z,78.42
2019-05-26T19:01:23.335Z,78.34
2019-05-26T19:03:51.785Z,77.98
2019-05-26T19:06:19.969Z,77.35
2019-05-26T19:08:48.422Z,77.27
2019-05-26T19:11:16.655Z,77.39
2019-05-26T19:13:44.853Z,76.81
2019-05-26T19:16:13.473Z,77.09
2019-05-26T19:18:41.641Z,76.73
2019-05-26T19:21:09.790Z,76.65
2019-05-26T19:23:38.252Z,76.26
2019-05-26T19:26:06.923Z,76.20
2019-05-26T19:28:36.507Z,76.62
2019-05-26T19:31:05.425Z,75.80
2019-05-26T19:33:34.249Z,76.02
2019-05-26T19:36:02.624Z,75.27
2019-05-26T19:38:30.798Z,74.75
2019-05-26T19:40:58.927Z,74.16
2019-05-26T19:43:27.139Z,73.62
2019-05-26T19:45:55.919Z,73.07
2019-05-26T19:48:35.863Z,73.21
2019-05-26T19:50:55.007Z,73.02
2019-05-26T19:53:23.357Z,72.52
2019-05-26T19:55:51.509Z,72.43
2019-05-26T19:58:20.162Z,72.83
2019-05-26T20:00:48.783Z,72.79
2019-05-26T20:03:17.445Z,72.79
2019-05-26T20:05:45.560Z,72.88
2019-05-26T20:08:14.073Z,72.20
2019-05-26T20:10:43.284Z,71.87
2019-05-26T20:13:11.482Z,71.78
2019-05-26T20:15:39.824Z,70.90
2019-05-26T20:18:08.330Z,69.04
2019-05-26T20:20:36.585Z,68.33
2019-05-26T20:23:04.777Z,67.32
2019-05-26T20:25:33.695Z,67.08
2019-05-26T20:28:01.835Z,66.83
2019-05-26T20:30:30.418Z,66.09
2019-05-26T20:32:58.896Z,65.94
2019-05-26T20:35:27.065Z,66.26
2019-05-26T20:37:55.329Z,65.90
2019-05-26T20:40:23.479Z,66.04
2019-05-26T20:42:51.880Z,66.49
2019-05-26T20:45:20.044Z,66.16
2019-05-26T20:47:48.315Z,66.10
2019-05-26T20:50:28.592Z,66.01
2019-05-26T20:52:46.852Z,65.87
2019-05-26T20:55:15.329Z,66.07
2019-05-26T20:57:43.651Z,66.07
2019-05-26T21:00:16.293Z,66.38
2019-05-26T21:02:45.191Z,66.48
2019-05-26T21:05:14.441Z,66.40
2019-05-26T21:07:43.262Z,67.01
2019-05-26T21:10:12.008Z,65.87
2019-05-26T21:12:40.566Z,66.04
2019-05-26T21:15:11.287Z,66.75
2019-05-26T21:17:39.433Z,66.64
2019-05-26T21:20:08.798Z,67.06
2019-05-26T21:22:36.976Z,67.23
2019-05-26T21:25:05.931Z,67.33
2019-05-26T21:27:34.209Z,67.84
2019-05-26T21:30:02.359Z,68.38
2019-05-26T21:32:31.499Z,69.23
2019-05-26T21:34:59.909Z,69.88
2019-05-26T21:37:28.390Z,70.67
2019-05-26T21:39:57.614Z,71.59
2019-05-26T21:42:25.847Z,72.72
2019-05-26T21:44:54.021Z,74.22
2019-05-26T21:47:22.591Z,75.85
2019-05-26T21:49:50.812Z,76.80
2019-05-26T21:52:19.864Z,77.21
2019-05-26T21:54:48.711Z,77.70
2019-05-26T21:57:16.898Z,78.05
2019-05-26T21:59:45.443Z,79.15
2019-05-26T22:02:14.031Z,79.47
2019-05-26T22:04:42.297Z,80.45
2019-05-26T22:07:11.069Z,81.22
2019-05-26T22:09:39.283Z,81.63
2019-05-26T22:12:07.625Z,82.41
2019-05-26T22:14:36.482Z,82.44
2019-05-26T22:17:04.796Z,82.34
2019-05-26T22:19:33.502Z,82.67
2019-05-26T22:22:02.002Z,82.85
2019-05-26T22:24:30.229Z,82.97
2019-05-26T22:26:58.828Z,83.29
2019-05-26T22:29:27.129Z,83.68
2019-05-26T22:31:55.372Z,83.30
2019-05-26T22:34:23.832Z,83.17
2019-05-26T22:36:52.469Z,83.07
2019-05-26T22:39:20.958Z,83.81
2019-05-26T22:41:49.913Z,83.87
2019-05-26T22:44:18.046Z,84.23
2019-05-26T22:46:46.688Z,84.24
2019-05-26T22:49:14.815Z,84.61
2019-05-26T22:51:42.982Z,84.55
2019-05-26T22:54:11.970Z,84.85
2019-05-26T22:56:40.410Z,84.65
2019-05-26T22:59:09.587Z,84.94
2019-05-26T23:01:38.204Z,84.97
2019-05-26T23:04:06.601Z,85.00
2019-05-26T23:06:34.828Z,85.09
2019-05-26T23:09:04.570Z,84.84
2019-05-26T23:11:33.127Z,85.01
2019-05-26T23:14:01.253Z,85.25
2019-05-26T23:16:29.745Z,85.10
2019-05-26T23:18:58.272Z,85.26
2019-05-26T23:21:27.159Z,84.92
2019-05-26T23:23:55.530Z,84.98
2019-05-26T23:26:23.769Z,85.28
2019-05-26T23:28:52.953Z,85.36
2019-05-26T23:31:21.480Z,85.19
2019-05-26T23:33:49.927Z,85.02
2019-05-26T23:36:18.052Z,85.33
2019-05-26T23:38:46.221Z,85.55
2019-05-26T23:41:14.718Z,85.54
2019-05-26T23:43:42.944Z,85.36
2019-05-26T23:46:11.653Z,85.70
2019-05-26T23:48:39.834Z,86.03
2019-05-26T23:51:08.105Z,86.42
2019-05-26T23:53:36.565Z,86.47
2019-05-26T23:56:05.440Z,86.32
2019-05-26T23:58:33.674Z,86.48
